Time;durP1;ratioP1;P1;durP2;ratioP2;P2;SDS_P1;SDS_P2;PMS_P1;PMS_P2;Temp;Humidity;BMP_temperature;BMP_pressure;BME280_temperature;BME280_humidity;BME280_pressure;Samples;Min_cycle;Max_cycle;Signal;HPM_P1;HPM_P2
2022/09/18 00:02:03;;;;;;;;;;;;;;;12.86;76.83;101530.34;5117359;27;19919;-56
2022/09/18 00:04:29;;;;;;;;;;;;;;;12.79;77.94;101524.50;5119899;27;20384;-55
2022/09/18 00:06:55;;;;;;;;;;;;;;;12.80;76.25;101525.38;5123470;27;20285;-56
2022/09/18 00:09:20;;;;;;;;;;;;;;;12.74;76.38;101521.28;5104045;27;19915;-56
2022/09/18 00:11:47;;;;;;;;;;;;;;;12.61;78.45;101530.97;5133020;27;20331;-55
2022/09/18 00:14:13;;;;;;;;;;;;;;;12.58;79.79;101523.16;5133210;27;19929;-55
2022/09/18 00:16:39;;;;;;;;;;;;;;;12.50;79.37;101519.16;5100437;28;19920;-56
2022/09/18 00:19:04;;;;;;;;;;;;;;;12.49;78.70;101522.75;5105333;27;19976;-55
2022/09/18 00:21:30;;;;;;;;;;;;;;;12.48;79.25;101515.72;5132672;27;20026;-56
2022/09/18 00:23:57;;;;;;;;;;;;;;;12.53;79.50;101520.78;5111255;27;20014;-55
2022/09/18 00:26:24;;;;;;;;;;;;;;;12.57;79.95;101521.44;5131438;27;19915;-55
2022/09/18 00:28:50;;;;;;;;;;;;;;;12.57;79.41;101521.44;5126871;27;20014;-55
2022/09/18 00:31:17;;;;;;;;;;;;;;;12.57;78.71;101514.28;5125486;27;20003;-55
2022/09/18 00:33:42;;;;;;;;;;;;;;;12.60;78.87;101513.25;5117700;27;19920;-55
2022/09/18 00:36:09;;;;;;;;;;;;;;;12.55;78.45;101513.53;5113194;27;20002;-55
2022/09/18 00:38:34;;;;;;;;;;;;;;;12.55;77.85;101512.66;5113801;28;20002;-55
2022/09/18 00:41:00;;;;;;;;;;;;;;;12.57;78.02;101511.63;5095084;28;20390;-56
2022/09/18 00:43:27;;;;;;;;;;;;;;;12.62;78.14;101519.38;5117071;27;20386;-55
2022/09/18 00:46:12;;;;;;;;;;;;;;;12.57;78.47;101514.28;5130510;27;20331;-55
2022/09/18 00:48:45;;;;;;;;;;;;;;;12.58;78.62;101525.81;5123462;27;19919;-55
2022/09/18 00:51:16;;;;;;;;;;;;;;;12.61;77.86;101520.31;5110580;27;19924;-56
2022/09/18 00:53:46;;;;;;;;;;;;;;;12.64;75.08;101510.28;5109073;27;19960;-56
2022/09/18 00:56:13;;;;;;;;;;;;;;;12.63;77.94;101513.91;5120580;27;20006;-56
2022/09/18 00:58:39;;;;;;;;;;;;;;;12.65;79.13;101511.19;5131564;27;19968;-56
2022/09/18 01:01:06;;;;;;;;;;;;;;;12.71;76.16;101510.78;5112318;27;19931;-56
2022/09/18 01:03:31;;;;;;;;;;;;;;;12.64;77.88;101514.78;5132048;27;19923;-56
2022/09/18 01:06:04;;;;;;;;;;;;;;;12.64;78.58;101520.13;5131437;27;19915;-56
2022/09/18 01:08:36;;;;;;;;;;;;;;;12.64;77.82;101512.97;5132983;27;19949;-56
2022/09/18 01:11:13;;;;;;;;;;;;;;;12.69;78.09;101508.22;5130260;27;20286;-56
2022/09/18 01:14:03;;;;;;;;;;;;;;;12.61;78.58;101518.47;5115034;27;20259;-55
2022/09/18 01:16:42;;;;;;;;;;;;;;;12.62;78.21;101516.69;5109802;27;19915;-56
2022/09/18 01:19:25;;;;;;;;;;;;;;;12.66;77.34;101527.06;5112774;27;19976;-56
2022/09/18 01:22:08;;;;;;;;;;;;;;;12.67;77.78;101522.59;5131492;27;19926;-56
2022/09/18 01:24:45;;;;;;;;;;;;;;;12.68;77.80;101519.84;5111940;27;19915;-55
2022/09/18 01:27:17;;;;;;;;;;;;;;;12.67;77.80;101517.25;5129998;27;19916;-56
2022/09/18 01:30:17;;;;;;;;;;;;;;;12.68;77.91;101522.50;5113843;27;19922;-55
2022/09/18 01:32:59;;;;;;;;;;;;;;;12.70;77.08;101520.59;5108264;27;19916;-56
2022/09/18 01:35:35;;;;;;;;;;;;;;;12.72;77.82;101517.84;5096792;28;19959;-56
2022/09/18 01:38:15;;;;;;;;;;;;;;;12.71;77.43;101519.66;5098717;28;19970;-56
2022/09/18 01:40:40;;;;;;;;;;;;;;;12.71;79.18;101510.78;5131838;27;20324;-55
2022/09/18 01:43:09;;;;;;;;;;;;;;;12.70;77.48;101511.72;5131053;28;19968;-56
2022/09/18 01:45:40;;;;;;;;;;;;;;;12.68;75.56;101514.50;5111875;28;19915;-56
2022/09/18 01:48:10;;;;;;;;;;;;;;;12.58;77.02;101505.31;5126408;28;19920;-55
2022/09/18 01:50:39;;;;;;;;;;;;;;;12.52;78.85;101511.03;5112167;28;19919;-55
2022/09/18 01:53:14;;;;;;;;;;;;;;;12.49;76.19;101506.75;5111573;28;20407;-55
2022/09/18 01:55:43;;;;;;;;;;;;;;;12.45;78.54;101494.56;5130975;27;20010;-55
2022/09/18 01:58:10;;;;;;;;;;;;;;;12.39;78.56;101502.94;5135269;27;20264;-55
2022/09/18 02:00:37;;;;;;;;;;;;;;;12.37;78.97;101507.50;5134366;27;20405;-55
2022/09/18 02:03:10;;;;;;;;;;;;;;;12.38;78.30;101495.88;5133528;27;19919;-55
2022/09/18 02:05:42;;;;;;;;;;;;;;;12.35;79.14;101487.19;5132280;27;19920;-56
2022/09/18 02:08:10;;;;;;;;;;;;;;;12.35;79.26;101487.19;5130567;27;19915;-55
2022/09/18 02:10:38;;;;;;;;;;;;;;;12.34;78.66;101485.47;5117533;27;20352;-55
2022/09/18 02:13:06;;;;;;;;;;;;;;;12.36;79.76;101491.59;5113798;27;20021;-56
2022/09/18 02:15:33;;;;;;;;;;;;;;;12.39;79.73;101496.75;5104996;28;19965;-56
2022/09/18 02:18:01;;;;;;;;;;;;;;;12.41;79.23;101490.38;5118337;27;20402;-55
2022/09/18 02:20:28;;;;;;;;;;;;;;;12.37;78.13;101488.81;5118613;27;19915;-55
2022/09/18 02:22:56;;;;;;;;;;;;;;;12.34;79.76;101485.47;5135909;27;19955;-55
2022/09/18 02:25:30;;;;;;;;;;;;;;;12.36;81.27;101489.78;5118146;27;19921;-56
2022/09/18 02:27:56;;;;;;;;;;;;;;;12.33;80.99;101487.31;5129888;27;19924;-55
2022/09/18 02:30:21;;;;;;;;;;;;;;;12.32;80.89;101482.91;5117694;27;20247;-55
2022/09/18 02:32:47;;;;;;;;;;;;;;;12.30;81.16;101481.28;5134406;27;20038;-55
2022/09/18 02:35:12;;;;;;;;;;;;;;;12.27;80.28;101475.19;5134941;27;19949;-55
2022/09/18 02:37:56;;;;;;;;;;;;;;;12.28;80.12;101474.22;5129774;27;19960;-56
2022/09/18 02:40:37;;;;;;;;;;;;;;;12.27;80.38;101474.34;5134060;27;20354;-55
2022/09/18 02:43:17;;;;;;;;;;;;;;;12.30;80.94;101467.97;5114410;27;19923;-56
2022/09/18 02:45:47;;;;;;;;;;;;;;;12.37;77.17;101470.16;5134248;27;19923;-55
2022/09/18 02:48:18;;;;;;;;;;;;;;;12.36;81.02;101465.78;5114068;27;19964;-55
2022/09/18 02:50:48;;;;;;;;;;;;;;;12.38;80.61;101476.34;5133466;27;19915;-56
2022/09/18 02:53:16;;;;;;;;;;;;;;;12.35;81.15;101474.69;5133755;27;19968;-56
2022/09/18 02:55:47;;;;;;;;;;;;;;;12.38;81.14;101473.66;5104449;27;20035;-56
2022/09/18 02:58:24;;;;;;;;;;;;;;;12.39;81.05;101462.91;5116362;27;19957;-55
2022/09/18 03:00:50;;;;;;;;;;;;;;;12.45;80.87;101470.53;5115741;27;19934;-56
2022/09/18 03:03:16;;;;;;;;;;;;;;;12.48;80.77;101464.16;5113943;28;20003;-55
2022/09/18 03:05:42;;;;;;;;;;;;;;;12.52;80.97;101462.16;5117063;27;20354;-55
2022/09/18 03:08:07;;;;;;;;;;;;;;;12.51;82.09;101474.66;5121558;27;20010;-56
2022/09/18 03:10:32;;;;;;;;;;;;;;;12.49;81.50;101468.53;5135945;27;19911;-55
2022/09/18 03:12:58;;;;;;;;;;;;;;;12.50;80.95;101459.59;5134442;27;20052;-55
2022/09/18 03:15:23;;;;;;;;;;;;;;;12.53;78.84;101462.09;5135690;27;19916;-55
2022/09/18 03:17:48;;;;;;;;;;;;;;;12.45;81.14;101457.19;5111378;27;20362;-55
2022/09/18 03:20:14;;;;;;;;;;;;;;;12.45;81.66;101457.19;5128164;27;20326;-55
2022/09/18 03:22:39;;;;;;;;;;;;;;;12.42;82.79;101452.06;5115284;27;19976;-55
2022/09/18 03:25:04;;;;;;;;;;;;;;;12.42;81.95;101456.53;5130438;27;19929;-55
2022/09/18 03:27:29;;;;;;;;;;;;;;;12.45;81.59;101456.34;5133332;27;20345;-56
2022/09/18 03:29:55;;;;;;;;;;;;;;;12.44;81.66;101463.50;5126304;27;19919;-55
2022/09/18 03:32:23;;;;;;;;;;;;;;;12.45;81.94;101469.69;5128066;27;19917;-55
2022/09/18 03:34:48;;;;;;;;;;;;;;;12.47;81.17;101468.66;5131509;27;19960;-55
2022/09/18 03:37:13;;;;;;;;;;;;;;;12.47;82.91;101462.44;5130927;27;20367;-55
2022/09/18 03:39:38;;;;;;;;;;;;;;;12.45;79.55;101454.53;5131299;27;20342;-55
2022/09/18 03:42:04;;;;;;;;;;;;;;;12.39;81.43;101449.56;5125906;27;20000;-55
2022/09/18 03:44:29;;;;;;;;;;;;;;;12.37;82.91;101456.81;5135104;27;19923;-55
2022/09/18 03:46:57;;;;;;;;;;;;;;;12.37;83.68;101461.28;5133858;27;19927;-55
2022/09/18 03:49:22;;;;;;;;;;;;;;;12.35;83.11;101441.84;5112918;27;19916;-56
2022/09/18 03:51:47;;;;;;;;;;;;;;;12.34;82.75;101440.13;5132992;27;20278;-55
2022/09/18 03:54:13;;;;;;;;;;;;;;;12.40;80.35;101447.75;5131959;27;19922;-56
2022/09/18 03:56:39;;;;;;;;;;;;;;;12.30;82.17;101430.63;5115282;27;19916;-54
2022/09/18 03:59:04;;;;;;;;;;;;;;;12.27;82.11;101432.50;5111518;27;20301;-56
2022/09/18 04:01:29;;;;;;;;;;;;;;;12.25;84.01;101436.22;5116971;27;19924;-55
2022/09/18 04:03:54;;;;;;;;;;;;;;;12.24;82.98;101437.19;5113798;27;19931;-55
2022/09/18 04:06:20;;;;;;;;;;;;;;;12.21;82.65;101429.38;5110667;27;19954;-54
2022/09/18 04:08:45;;;;;;;;;;;;;;;12.19;82.03;101432.13;5116504;27;19920;-55
2022/09/18 04:11:13;;;;;;;;;;;;;;;12.20;82.41;101428.47;5131945;27;19915;-55
2022/09/18 04:13:41;;;;;;;;;;;;;;;12.19;80.94;101425.91;5108342;28;20307;-56
2022/09/18 04:16:06;;;;;;;;;;;;;;;12.20;81.77;101423.16;5116998;27;20006;-56
2022/09/18 04:18:31;;;;;;;;;;;;;;;12.21;81.28;101429.38;5125694;27;19960;-56
2022/09/18 04:20:59;;;;;;;;;;;;;;;12.21;80.56;101429.38;5132587;27;19938;-55
2022/09/18 04:23:24;;;;;;;;;;;;;;;12.18;81.47;101426.88;5132665;27;19951;-56
2022/09/18 04:25:49;;;;;;;;;;;;;;;12.20;81.62;101439.16;5124518;27;19970;-56
2022/09/18 04:28:14;;;;;;;;;;;;;;;12.19;81.37;101439.25;5132170;27;20323;-56
2022/09/18 04:30:40;;;;;;;;;;;;;;;12.18;81.15;101440.22;5133148;27;19980;-55
2022/09/18 04:33:06;;;;;;;;;;;;;;;12.09;80.63;101417.63;5129122;27;20307;-56
2022/09/18 04:35:32;;;;;;;;;;;;;;;12.16;81.24;101442.97;5129220;27;19915;-55
2022/09/18 04:37:57;;;;;;;;;;;;;;;12.18;81.77;101442.88;5128031;27;19940;-55
2022/09/18 04:40:22;;;;;;;;;;;;;;;12.18;81.58;101440.22;5134159;27;19961;-56
2022/09/18 04:42:48;;;;;;;;;;;;;;;12.15;80.59;101445.75;5132565;27;20399;-55
2022/09/18 04:45:13;;;;;;;;;;;;;;;12.12;80.11;101445.88;5129531;27;19915;-56
2022/09/18 04:47:41;;;;;;;;;;;;;;;12.10;81.70;101440.66;5131134;27;19916;-56
2022/09/18 04:50:07;;;;;;;;;;;;;;;12.08;81.72;101439.03;5130284;27;19998;-55
2022/09/18 04:52:33;;;;;;;;;;;;;;;12.06;81.57;101444.47;5132196;27;19981;-56
2022/09/18 04:54:58;;;;;;;;;;;;;;;12.08;81.64;101444.38;5119372;27;19915;-55
2022/09/18 04:57:24;;;;;;;;;;;;;;;12.10;82.66;101446.00;5117331;27;19922;-55
2022/09/18 04:59:49;;;;;;;;;;;;;;;12.08;82.94;101442.56;5126277;27;20023;-55
2022/09/18 05:02:14;;;;;;;;;;;;;;;12.03;82.05;101436.66;5108317;27;19965;-55
2022/09/18 05:04:39;;;;;;;;;;;;;;;11.97;83.41;101435.22;5131668;27;19915;-55
2022/09/18 05:07:05;;;;;;;;;;;;;;;11.93;85.29;101433.66;5130947;27;20010;-55
2022/09/18 05:09:31;;;;;;;;;;;;;;;11.91;83.83;101432.03;5115473;27;19907;-56
2022/09/18 05:11:56;;;;;;;;;;;;;;;11.89;84.64;101418.81;5124248;27;19916;-55
2022/09/18 05:14:22;;;;;;;;;;;;;;;11.89;84.02;101418.81;5114354;27;19916;-56
2022/09/18 05:16:47;;;;;;;;;;;;;;;11.91;83.12;101426.72;5112511;28;20286;-56
2022/09/18 05:19:15;;;;;;;;;;;;;;;11.91;83.40;101424.94;5111993;27;19923;-56
2022/09/18 05:21:40;;;;;;;;;;;;;;;11.91;84.03;101424.94;5129124;27;19919;-55
2022/09/18 05:24:05;;;;;;;;;;;;;;;11.94;84.79;101439.84;5112948;27;19919;-56
2022/09/18 05:26:31;;;;;;;;;;;;;;;11.97;84.71;101445.00;5126104;27;19951;-55
2022/09/18 05:28:56;;;;;;;;;;;;;;;11.97;84.73;101429.88;5117580;28;19921;-55
2022/09/18 05:31:21;;;;;;;;;;;;;;;11.99;85.01;101441.31;5129446;27;19951;-55
2022/09/18 05:33:46;;;;;;;;;;;;;;;11.99;85.50;101445.78;5131800;27;19915;-55
2022/09/18 05:36:12;;;;;;;;;;;;;;;11.98;85.71;101452.06;5106640;27;19922;-55
2022/09/18 05:38:37;;;;;;;;;;;;;;;11.95;85.31;101455.78;5132169;27;19919;-56
2022/09/18 05:41:02;;;;;;;;;;;;;;;11.91;86.09;101458.69;5129840;27;20503;-55
2022/09/18 05:43:28;;;;;;;;;;;;;;;11.92;86.74;101453.28;5114980;28;19916;-55
2022/09/18 05:45:53;;;;;;;;;;;;;;;11.93;84.86;101449.66;5112375;28;19916;-55
2022/09/18 05:48:19;;;;;;;;;;;;;;;11.94;84.93;101439.84;5100598;28;19941;-55
2022/09/18 05:50:44;;;;;;;;;;;;;;;11.97;84.66;101439.66;5111096;28;20022;-56
2022/09/18 05:53:11;;;;;;;;;;;;;;;12.03;85.27;101442.00;5109831;28;20023;-55
2022/09/18 05:55:36;;;;;;;;;;;;;;;12.03;84.69;101445.50;5110939;28;19920;-55
2022/09/18 05:58:04;;;;;;;;;;;;;;;12.04;84.33;101447.22;5116711;28;19923;-55
2022/09/18 06:00:30;;;;;;;;;;;;;;;12.02;84.64;101443.78;5132447;28;19945;-55
2022/09/18 06:02:57;;;;;;;;;;;;;;;12.04;83.03;101438.38;5129829;28;19928;-55
2022/09/18 06:05:23;;;;;;;;;;;;;;;12.05;83.65;101434.75;5115543;28;19916;-56
2022/09/18 06:07:49;;;;;;;;;;;;;;;12.08;83.82;101439.91;5111741;28;19935;-56
2022/09/18 06:10:14;;;;;;;;;;;;;;;12.08;84.73;101437.22;5112349;28;20010;-55
2022/09/18 06:12:39;;;;;;;;;;;;;;;12.05;83.58;101427.59;5111895;28;19926;-55
2022/09/18 06:15:05;;;;;;;;;;;;;;;12.08;81.84;101425.72;5105846;28;19958;-55
2022/09/18 06:17:31;;;;;;;;;;;;;;;12.08;83.23;101428.38;5112115;28;19919;-55
2022/09/18 06:19:56;;;;;;;;;;;;;;;12.08;84.42;101429.22;5131680;28;19916;-56
2022/09/18 06:22:21;;;;;;;;;;;;;;;12.13;85.73;101434.28;5131966;28;19915;-55
2022/09/18 06:24:46;;;;;;;;;;;;;;;12.14;85.02;101433.34;5119124;28;19954;-55
2022/09/18 06:27:12;;;;;;;;;;;;;;;12.15;84.98;101438.59;5120659;28;20287;-55
2022/09/18 06:29:37;;;;;;;;;;;;;;;12.19;83.59;101436.59;5127894;28;19920;-55
2022/09/18 06:32:04;;;;;;;;;;;;;;;12.22;84.64;101433.75;5130004;28;19915;-55
2022/09/18 06:34:30;;;;;;;;;;;;;;;12.27;84.60;101431.66;5110135;28;20006;-55
2022/09/18 06:36:55;;;;;;;;;;;;;;;12.28;84.56;101428.03;5113467;28;20045;-55
2022/09/18 06:39:20;;;;;;;;;;;;;;;12.29;83.61;101416.41;5114874;28;19916;-56
2022/09/18 06:41:46;;;;;;;;;;;;;;;12.31;84.66;101418.97;5111510;28;20086;-56
2022/09/18 06:44:11;;;;;;;;;;;;;;;12.33;84.87;101414.44;5097275;28;20293;-56
2022/09/18 06:46:36;;;;;;;;;;;;;;;12.34;85.04;101418.78;5115406;28;20371;-54
2022/09/18 06:49:02;;;;;;;;;;;;;;;12.37;84.62;101419.47;5115966;28;19912;-55
2022/09/18 06:51:27;;;;;;;;;;;;;;;12.44;85.00;101426.16;5114920;28;20427;-55
2022/09/18 06:53:52;;;;;;;;;;;;;;;12.49;83.13;101426.69;5110703;27;19915;-56
2022/09/18 06:56:18;;;;;;;;;;;;;;;12.46;84.55;101421.56;5135236;27;20358;-55
2022/09/18 06:58:44;;;;;;;;;;;;;;;12.45;84.05;101427.00;5136042;27;19926;-55
2022/09/18 07:01:09;;;;;;;;;;;;;;;12.46;84.10;101431.38;5135471;27;19919;-56
2022/09/18 07:03:34;;;;;;;;;;;;;;;12.46;85.09;101424.22;5134231;27;19960;-55
2022/09/18 07:05:59;;;;;;;;;;;;;;;12.53;84.96;101423.84;5135142;27;20365;-55
2022/09/18 07:08:25;;;;;;;;;;;;;;;12.52;85.16;101428.31;5135309;27;19919;-55
2022/09/18 07:10:50;;;;;;;;;;;;;;;12.61;84.14;101432.25;5135432;27;20011;-56
2022/09/18 07:13:16;;;;;;;;;;;;;;;12.57;84.25;101420.91;5116402;27;19915;-56
2022/09/18 07:15:41;;;;;;;;;;;;;;;12.58;84.65;101421.75;5134302;27;20391;-55
2022/09/18 07:18:07;;;;;;;;;;;;;;;12.60;84.72;101418.03;5117127;27;19919;-55
2022/09/18 07:20:32;;;;;;;;;;;;;;;12.64;85.64;101421.38;5135732;27;19911;-55
2022/09/18 07:23:01;;;;;;;;;;;;;;;12.67;84.96;101422.03;5134979;27;20403;-55
2022/09/18 07:25:28;;;;;;;;;;;;;;;12.73;86.36;101419.00;5133388;27;19916;-55
2022/09/18 07:27:53;;;;;;;;;;;;;;;12.78;85.22;101413.34;5118543;27;20014;-55
2022/09/18 07:30:19;;;;;;;;;;;;;;;12.82;85.61;101406.84;5114909;28;19954;-55
2022/09/18 07:32:46;;;;;;;;;;;;;;;12.85;85.24;101404.03;5114799;28;19911;-56
2022/09/18 07:35:14;;;;;;;;;;;;;;;12.84;84.64;101402.28;5115991;27;19915;-56
2022/09/18 07:37:40;;;;;;;;;;;;;;;12.86;85.52;101404.88;5113946;27;19937;-56
2022/09/18 07:40:06;;;;;;;;;;;;;;;12.92;84.30;101396.47;5096255;28;19915;-56
2022/09/18 07:42:32;;;;;;;;;;;;;;;12.94;86.33;101390.06;5114650;28;20453;-56
2022/09/18 07:44:57;;;;;;;;;;;;;;;12.94;85.20;101397.22;5114759;28;19999;-55
2022/09/18 07:47:24;;;;;;;;;;;;;;;12.99;84.29;101399.59;5115423;27;19916;-56
2022/09/18 07:49:49;;;;;;;;;;;;;;;13.01;85.30;101405.69;5114550;28;19960;-56
2022/09/18 07:52:15;;;;;;;;;;;;;;;13.08;84.83;101405.19;5114059;28;20362;-55
2022/09/18 07:54:40;;;;;;;;;;;;;;;13.15;85.94;101406.53;5094651;28;20247;-56
2022/09/18 07:57:05;;;;;;;;;;;;;;;13.21;85.28;101399.94;5115164;27;19954;-55
2022/09/18 07:59:30;;;;;;;;;;;;;;;13.30;86.79;101401.19;5114474;28;19916;-55
2022/09/18 08:01:58;;;;;;;;;;;;;;;13.43;86.80;101409.22;5114097;28;19915;-55
2022/09/18 08:04:23;;;;;;;;;;;;;;;13.55;86.25;101403.06;5114584;28;19912;-55
2022/09/18 08:06:52;;;;;;;;;;;;;;;13.57;86.58;101403.84;5109003;27;20352;-56
2022/09/18 08:09:18;;;;;;;;;;;;;;;13.68;85.18;101393.28;5134809;27;19941;-56
2022/09/18 08:11:43;;;;;;;;;;;;;;;13.59;84.80;101392.06;5115997;27;20011;-55
2022/09/18 08:14:09;;;;;;;;;;;;;;;13.62;85.18;101397.22;5134477;27;19977;-56
2022/09/18 08:16:34;;;;;;;;;;;;;;;13.66;85.04;101387.16;5125637;27;19955;-55
2022/09/18 08:19:00;;;;;;;;;;;;;;;13.71;83.38;101400.25;5095627;28;19915;-55
2022/09/18 08:21:25;;;;;;;;;;;;;;;13.61;84.64;101392.81;5113203;28;19927;-55
2022/09/18 08:23:50;;;;;;;;;;;;;;;13.60;83.89;101401.81;5113783;28;20304;-55
2022/09/18 08:26:15;;;;;;;;;;;;;;;13.58;84.76;101398.38;5124297;27;19915;-56
2022/09/18 08:28:41;;;;;;;;;;;;;;;13.57;84.30;101399.34;5134120;27;19919;-55
2022/09/18 08:31:06;;;;;;;;;;;;;;;13.49;84.69;101417.69;5134183;27;19918;-55
2022/09/18 08:33:31;;;;;;;;;;;;;;;13.45;85.27;101421.53;5134430;27;20356;-55
2022/09/18 08:35:59;;;;;;;;;;;;;;;13.40;85.86;101415.63;5132216;27;19915;-55
2022/09/18 08:38:24;;;;;;;;;;;;;;;13.36;84.87;101422.13;5133394;27;19911;-55
2022/09/18 08:40:50;;;;;;;;;;;;;;;13.36;84.19;101414.97;5134077;27;19923;-56
2022/09/18 08:43:32;;;;;;;;;;;;;;;13.32;84.77;101424.13;5133971;27;19911;-56
2022/09/18 08:46:01;;;;;;;;;;;;;;;13.21;85.41;101421.31;5122523;27;19927;-56
2022/09/18 08:48:35;;;;;;;;;;;;;;;13.21;85.35;101420.41;5113367;28;19915;-55
2022/09/18 08:51:11;;;;;;;;;;;;;;;13.21;86.44;101415.97;5094901;28;19919;-55
2022/09/18 08:53:44;;;;;;;;;;;;;;;13.24;85.62;101413.09;5113185;28;20350;-56
2022/09/18 08:56:15;;;;;;;;;;;;;;;13.27;85.99;101415.59;5121665;27;19951;-56
2022/09/18 08:59:01;;;;;;;;;;;;;;;13.30;85.95;101417.19;5133804;27;20330;-56
2022/09/18 09:01:34;;;;;;;;;;;;;;;13.33;85.37;101422.34;5132832;27;19987;-56
2022/09/18 09:04:05;;;;;;;;;;;;;;;13.26;85.87;101421.88;5133868;27;19993;-56
2022/09/18 09:06:54;;;;;;;;;;;;;;;13.25;85.78;101427.28;5114585;27;19915;-56
2022/09/18 09:09:29;;;;;;;;;;;;;;;13.25;85.81;101417.50;5113025;28;20015;-56
2022/09/18 09:12:12;;;;;;;;;;;;;;;13.26;86.38;101418.34;5112621;28;19912;-55
2022/09/18 09:14:37;;;;;;;;;;;;;;;13.23;86.14;101423.84;5112664;28;20315;-56
2022/09/18 09:17:23;;;;;;;;;;;;;;;13.25;86.58;101419.28;5113793;27;19935;-56
2022/09/18 09:20:23;;;;;;;;;;;;;;;13.25;85.92;101425.50;5105157;28;20056;-55
2022/09/18 09:23:00;;;;;;;;;;;;;;;13.27;85.67;101420.94;5088960;28;19922;-55
2022/09/18 09:25:35;;;;;;;;;;;;;;;13.30;84.85;101417.19;5104425;27;19923;-56
2022/09/18 09:28:11;;;;;;;;;;;;;;;13.33;86.29;101427.69;5114812;27;19936;-55
2022/09/18 09:30:38;;;;;;;;;;;;;;;13.31;86.73;101418.91;5133013;27;19919;-56
2022/09/18 09:33:15;;;;;;;;;;;;;;;13.36;87.57;101423.00;5114850;27;19958;-56
2022/09/18 09:35:43;;;;;;;;;;;;;;;13.38;87.04;101421.09;5112893;27;19970;-55
2022/09/18 09:38:29;;;;;;;;;;;;;;;13.36;87.02;101419.47;5132591;27;20449;-55
2022/09/18 09:40:56;;;;;;;;;;;;;;;13.35;86.63;101417.72;5133006;27;19919;-55
2022/09/18 09:43:36;;;;;;;;;;;;;;;13.34;87.40;101418.72;5132986;27;19911;-56
2022/09/18 09:46:08;;;;;;;;;;;;;;;13.36;87.77;101427.50;5096962;28;19915;-56
2022/09/18 09:48:33;;;;;;;;;;;;;;;13.37;87.46;101427.38;5112577;28;19946;-56
2022/09/18 09:51:01;;;;;;;;;;;;;;;13.41;88.08;101428.03;5094010;28;19963;-56
2022/09/18 09:53:27;;;;;;;;;;;;;;;13.44;88.05;101430.50;5093648;28;19919;-56
2022/09/18 09:56:01;;;;;;;;;;;;;;;13.45;87.38;101418.88;5113334;28;19920;-56
2022/09/18 09:58:26;;;;;;;;;;;;;;;13.48;87.00;101412.47;5111057;28;20006;-56
2022/09/18 10:01:05;;;;;;;;;;;;;;;13.51;87.19;101410.44;5112142;28;20405;-56
2022/09/18 10:03:41;;;;;;;;;;;;;;;13.62;87.27;101388.34;5111387;28;19920;-56
2022/09/18 10:06:27;;;;;;;;;;;;;;;13.69;87.14;101386.13;5130086;28;19998;-56
2022/09/18 10:08:55;;;;;;;;;;;;;;;13.78;87.45;101389.00;5114445;28;19916;-56
2022/09/18 10:11:22;;;;;;;;;;;;;;;13.84;87.78;101380.56;5114291;28;19912;-56
2022/09/18 10:13:50;;;;;;;;;;;;;;;13.93;85.17;101380.91;5132810;28;19918;-56
2022/09/18 10:16:21;;;;;;;;;;;;;;;13.89;87.16;101384.75;5112220;28;20270;-56
2022/09/18 10:18:48;;;;;;;;;;;;;;;13.96;87.13;101386.03;5135081;27;20441;-55
2022/09/18 10:21:16;;;;;;;;;;;;;;;14.04;86.95;101387.22;5135806;27;19934;-55
2022/09/18 10:24:08;;;;;;;;;;;;;;;14.13;87.50;101385.75;5115806;27;19948;-55
2022/09/18 10:26:42;;;;;;;;;;;;;;;14.19;86.68;101389.81;5113604;28;19923;-55
2022/09/18 10:29:10;;;;;;;;;;;;;;;14.23;85.21;101391.28;5115936;28;19912;-56
2022/09/18 10:31:52;;;;;;;;;;;;;;;14.22;86.38;101394.94;5115875;28;20235;-55
2022/09/18 10:34:30;;;;;;;;;;;;;;;14.24;86.85;101390.34;5116638;27;19938;-56
2022/09/18 10:36:55;;;;;;;;;;;;;;;14.28;86.19;101387.34;5115349;28;19942;-55
2022/09/18 10:39:26;;;;;;;;;;;;;;;14.29;86.11;101394.41;5115867;28;20367;-56
2022/09/18 10:41:55;;;;;;;;;;;;;;;14.28;84.92;101390.00;5115883;28;19936;-56
2022/09/18 10:44:33;;;;;;;;;;;;;;;14.28;84.21;101387.34;5106448;27;20378;-56
2022/09/18 10:47:08;;;;;;;;;;;;;;;14.25;84.55;101382.19;5115592;28;19915;-56
2022/09/18 10:49:34;;;;;;;;;;;;;;;14.29;84.72;101385.50;5115573;28;19912;-56
2022/09/18 10:52:14;;;;;;;;;;;;;;;14.36;84.02;101377.94;5113816;28;20049;-55
2022/09/18 10:54:55;;;;;;;;;;;;;;;14.42;84.20;101370.31;5116746;27;19912;-56
2022/09/18 10:57:28;;;;;;;;;;;;;;;14.40;84.83;101361.53;5115527;28;20032;-56
2022/09/18 10:59:53;;;;;;;;;;;;;;;14.28;84.80;101363.25;5115706;28;19920;-55
2022/09/18 11:02:20;;;;;;;;;;;;;;;14.27;85.14;101366.06;5096824;28;20393;-56
2022/09/18 11:04:49;;;;;;;;;;;;;;;14.40;84.62;101361.53;5111654;27;19919;-56
2022/09/18 11:07:18;;;;;;;;;;;;;;;14.46;84.81;101354.88;5117672;27;19918;-55
2022/09/18 11:09:45;;;;;;;;;;;;;;;14.62;83.49;101365.38;5117408;27;20447;-55
2022/09/18 11:12:15;;;;;;;;;;;;;;;14.51;83.78;101355.44;5135709;27;19918;-55
2022/09/18 11:14:42;;;;;;;;;;;;;;;14.38;83.82;101360.78;5133927;27;19919;-55
2022/09/18 11:17:16;;;;;;;;;;;;;;;14.32;84.22;101374.59;5116905;27;19915;-55
2022/09/18 11:19:47;;;;;;;;;;;;;;;14.19;84.25;101373.75;5117345;27;20014;-56
2022/09/18 11:22:43;;;;;;;;;;;;;;;14.17;83.79;101387.22;5135065;27;19960;-56
2022/09/18 11:25:22;;;;;;;;;;;;;;;13.97;85.01;101387.75;5079095;28;20441;-56
2022/09/18 11:27:49;;;;;;;;;;;;;;;13.90;85.27;101383.78;5096376;28;19912;-56
2022/09/18 11:30:15;;;;;;;;;;;;;;;13.85;85.50;101392.13;5114833;28;19911;-55
2022/09/18 11:32:43;;;;;;;;;;;;;;;13.80;86.39;101412.97;5114492;28;19955;-56
2022/09/18 11:35:16;;;;;;;;;;;;;;;13.68;87.46;101397.75;5097491;28;19950;-56
2022/09/18 11:37:49;;;;;;;;;;;;;;;13.59;87.58;101402.78;5114041;28;19968;-55
2022/09/18 11:40:20;;;;;;;;;;;;;;;13.48;87.82;101410.63;5114862;28;19912;-56
2022/09/18 11:42:47;;;;;;;;;;;;;;;13.43;86.30;101412.75;5115113;27;19926;-56
2022/09/18 11:45:21;;;;;;;;;;;;;;;13.34;86.92;101422.22;5116884;27;19919;-56
2022/09/18 11:48:07;;;;;;;;;;;;;;;13.31;86.89;101409.06;5134657;27;19911;-56
2022/09/18 11:50:34;;;;;;;;;;;;;;;13.29;86.92;101421.66;5134564;27;19915;-55
2022/09/18 11:53:03;;;;;;;;;;;;;;;13.30;87.72;101407.38;5133843;27;19912;-56
2022/09/18 11:55:40;;;;;;;;;;;;;;;13.33;88.51;101412.50;5134544;27;19916;-55
2022/09/18 11:58:15;;;;;;;;;;;;;;;13.43;88.70;101414.56;5116183;27;20356;-55
2022/09/18 12:00:53;;;;;;;;;;;;;;;13.47;88.11;101418.75;5134627;27;19930;-55
2022/09/18 12:03:28;;;;;;;;;;;;;;;13.51;88.11;101422.94;5107162;28;20441;-55
2022/09/18 12:06:07;;;;;;;;;;;;;;;13.54;88.01;101422.75;5114306;28;19966;-55
2022/09/18 12:08:52;;;;;;;;;;;;;;;13.55;87.51;101424.44;5114299;28;19919;-56
2022/09/18 12:11:30;;;;;;;;;;;;;;;13.59;87.67;101426.81;5114019;28;19922;-55
2022/09/18 12:14:00;;;;;;;;;;;;;;;13.63;87.36;101428.31;5124631;27;20271;-55
2022/09/18 12:16:31;;;;;;;;;;;;;;;13.60;86.88;101430.34;5115693;27;19915;-56
2022/09/18 12:18:59;;;;;;;;;;;;;;;13.55;86.46;101435.13;5134303;27;19956;-56
2022/09/18 12:21:31;;;;;;;;;;;;;;;13.52;87.14;101427.31;5133678;27;19955;-55
2022/09/18 12:23:56;;;;;;;;;;;;;;;13.45;87.78;101432.22;5117869;27;19926;-56
2022/09/18 12:26:40;;;;;;;;;;;;;;;13.42;87.48;101432.44;5113615;28;19911;-55
2022/09/18 12:29:21;;;;;;;;;;;;;;;13.39;88.62;101429.97;5113563;28;20449;-55
2022/09/18 12:31:59;;;;;;;;;;;;;;;13.32;88.72;101434.81;5113193;28;19916;-56
2022/09/18 12:34:24;;;;;;;;;;;;;;;13.13;87.94;101405.75;5114639;27;20378;-56
2022/09/18 12:37:04;;;;;;;;;;;;;;;13.29;88.33;101431.50;5112882;28;19918;-56
2022/09/18 12:39:32;;;;;;;;;;;;;;;13.28;88.90;101427.97;5132200;27;20006;-56
2022/09/18 12:41:57;;;;;;;;;;;;;;;13.24;88.49;101428.25;5115082;27;20044;-56
2022/09/18 12:44:37;;;;;;;;;;;;;;;13.28;88.55;101424.44;5122484;27;19955;-56
2022/09/18 12:47:21;;;;;;;;;;;;;;;13.30;88.49;101409.19;5095160;28;20006;-55